sensor_id;sensor_type;location;lat;lon;timestamp;temperature;humidity
52867;DHT22;38739;53.324;6.862;2023-11-19T00:00:43;9.70;99.90
52867;DHT22;38739;53.324;6.862;2023-11-19T00:03:08;9.70;99.90
52867;DHT22;38739;53.324;6.862;2023-11-19T00:05:36;9.80;99.90
52867;DHT22;38739;53.324;6.862;2023-11-19T00:08:02;9.80;99.90
52867;DHT22;38739;53.324;6.862;2023-11-19T00:10:27;9.80;99.90
52867;DHT22;38739;53.324;6.862;2023-11-19T00:12:53;9.90;99.90
52867;DHT22;38739;53.324;6.862;2023-11-19T00:15:19;9.90;99.90
52867;DHT22;38739;53.324;6.862;2023-11-19T00:17:45;10.00;99.90
52867;DHT22;38739;53.324;6.862;2023-11-19T00:20:13;10.00;99.90
52867;DHT22;38739;53.324;6.862;2023-11-19T00:22:39;10.10;99.90
52867;DHT22;38739;53.324;6.862;2023-11-19T00:25:05;10.10;99.90
52867;DHT22;38739;53.324;6.862;2023-11-19T00:27:31;10.20;99.90
52867;DHT22;38739;53.324;6.862;2023-11-19T00:29:57;10.20;99.90
52867;DHT22;38739;53.324;6.862;2023-11-19T00:32:23;10.30;99.90
52867;DHT22;38739;53.324;6.862;2023-11-19T00:34:49;10.40;99.90
52867;DHT22;38739;53.324;6.862;2023-11-19T00:37:15;10.40;99.90
52867;DHT22;38739;53.324;6.862;2023-11-19T00:39:42;10.40;99.90
52867;DHT22;38739;53.324;6.862;2023-11-19T00:42:09;10.50;99.90
52867;DHT22;38739;53.324;6.862;2023-11-19T00:44:36;10.50;99.90
52867;DHT22;38739;53.324;6.862;2023-11-19T00:47:02;10.50;99.90
52867;DHT22;38739;53.324;6.862;2023-11-19T00:49:28;10.50;99.90
52867;DHT22;38739;53.324;6.862;2023-11-19T00:51:54;10.50;99.90
52867;DHT22;38739;53.324;6.862;2023-11-19T00:54:20;10.60;99.90
52867;DHT22;38739;53.324;6.862;2023-11-19T00:56:45;10.70;99.90
52867;DHT22;38739;53.324;6.862;2023-11-19T00:59:11;10.70;99.90
52867;DHT22;38739;53.324;6.862;2023-11-19T01:01:37;10.70;99.90
52867;DHT22;38739;53.324;6.862;2023-11-19T01:04:02;10.70;99.90
52867;DHT22;38739;53.324;6.862;2023-11-19T01:06:29;10.70;99.90
52867;DHT22;38739;53.324;6.862;2023-11-19T01:08:56;10.80;99.90
52867;DHT22;38739;53.324;6.862;2023-11-19T01:11:25;10.80;99.90
52867;DHT22;38739;53.324;6.862;2023-11-19T01:13:51;10.80;99.90
52867;DHT22;38739;53.324;6.862;2023-11-19T01:16:17;10.80;99.90
52867;DHT22;38739;53.324;6.862;2023-11-19T01:18:44;10.80;99.90
52867;DHT22;38739;53.324;6.862;2023-11-19T01:21:09;10.80;99.90
52867;DHT22;38739;53.324;6.862;2023-11-19T01:23:35;10.80;99.90
52867;DHT22;38739;53.324;6.862;2023-11-19T01:26:03;10.90;99.90
52867;DHT22;38739;53.324;6.862;2023-11-19T01:28:31;10.90;99.90
52867;DHT22;38739;53.324;6.862;2023-11-19T01:30:57;10.90;99.90
52867;DHT22;38739;53.324;6.862;2023-11-19T01:33:22;11.00;99.90
52867;DHT22;38739;53.324;6.862;2023-11-19T01:35:48;11.00;99.90
52867;DHT22;38739;53.324;6.862;2023-11-19T01:38:14;11.10;99.90
52867;DHT22;38739;53.324;6.862;2023-11-19T01:40:40;11.10;99.90
52867;DHT22;38739;53.324;6.862;2023-11-19T01:43:05;11.20;99.90
52867;DHT22;38739;53.324;6.862;2023-11-19T01:45:31;11.30;99.90
52867;DHT22;38739;53.324;6.862;2023-11-19T01:48:01;11.30;99.90
52867;DHT22;38739;53.324;6.862;2023-11-19T01:50:30;11.30;99.90
52867;DHT22;38739;53.324;6.862;2023-11-19T01:52:57;11.40;99.90
52867;DHT22;38739;53.324;6.862;2023-11-19T01:55:24;11.40;99.90
52867;DHT22;38739;53.324;6.862;2023-11-19T01:57:51;11.40;99.90
52867;DHT22;38739;53.324;6.862;2023-11-19T02:00:19;11.40;99.90
52867;DHT22;38739;53.324;6.862;2023-11-19T02:02:46;11.50;99.90
52867;DHT22;38739;53.324;6.862;2023-11-19T02:05:12;11.50;99.90
52867;DHT22;38739;53.324;6.862;2023-11-19T02:07:39;11.50;99.90
52867;DHT22;38739;53.324;6.862;2023-11-19T02:10:05;11.50;99.90
52867;DHT22;38739;53.324;6.862;2023-11-19T02:12:31;11.60;99.90
52867;DHT22;38739;53.324;6.862;2023-11-19T02:15:02;11.60;99.90
52867;DHT22;38739;53.324;6.862;2023-11-19T02:17:31;11.60;99.90
52867;DHT22;38739;53.324;6.862;2023-11-19T02:19:58;11.60;99.90
52867;DHT22;38739;53.324;6.862;2023-11-19T02:22:24;11.60;99.90
52867;DHT22;38739;53.324;6.862;2023-11-19T02:24:51;11.50;99.90
52867;DHT22;38739;53.324;6.862;2023-11-19T02:27:57;11.60;99.90
52867;DHT22;38739;53.324;6.862;2023-11-19T02:30:24;11.60;99.90
52867;DHT22;38739;53.324;6.862;2023-11-19T02:33:00;11.60;99.90
52867;DHT22;38739;53.324;6.862;2023-11-19T02:35:31;11.60;99.90
52867;DHT22;38739;53.324;6.862;2023-11-19T02:37:57;11.60;99.90
52867;DHT22;38739;53.324;6.862;2023-11-19T02:40:24;11.60;99.90
52867;DHT22;38739;53.324;6.862;2023-11-19T02:42:51;11.70;99.90
52867;DHT22;38739;53.324;6.862;2023-11-19T02:45:17;11.60;99.90
52867;DHT22;38739;53.324;6.862;2023-11-19T02:47:43;11.70;99.90
52867;DHT22;38739;53.324;6.862;2023-11-19T02:50:13;11.70;99.90
52867;DHT22;38739;53.324;6.862;2023-11-19T02:52:44;11.70;99.90
52867;DHT22;38739;53.324;6.862;2023-11-19T02:55:11;11.70;99.90
52867;DHT22;38739;53.324;6.862;2023-11-19T02:57:40;11.70;99.90
52867;DHT22;38739;53.324;6.862;2023-11-19T03:00:17;11.70;99.90
52867;DHT22;38739;53.324;6.862;2023-11-19T03:02:44;11.70;99.90
52867;DHT22;38739;53.324;6.862;2023-11-19T03:05:14;11.70;99.90
52867;DHT22;38739;53.324;6.862;2023-11-19T03:07:43;11.70;99.90
52867;DHT22;38739;53.324;6.862;2023-11-19T03:10:13;11.70;99.90
52867;DHT22;38739;53.324;6.862;2023-11-19T03:12:43;11.70;99.90
52867;DHT22;38739;53.324;6.862;2023-11-19T03:15:09;11.70;99.90
52867;DHT22;38739;53.324;6.862;2023-11-19T03:17:36;11.60;99.90
52867;DHT22;38739;53.324;6.862;2023-11-19T03:20:06;11.60;99.90
52867;DHT22;38739;53.324;6.862;2023-11-19T03:22:32;11.60;99.90
52867;DHT22;38739;53.324;6.862;2023-11-19T03:25:01;11.60;99.90
52867;DHT22;38739;53.324;6.862;2023-11-19T03:27:27;11.60;99.90
52867;DHT22;38739;53.324;6.862;2023-11-19T03:29:52;11.60;99.90
52867;DHT22;38739;53.324;6.862;2023-11-19T03:32:18;11.60;99.90
52867;DHT22;38739;53.324;6.862;2023-11-19T03:34:43;11.60;99.90
52867;DHT22;38739;53.324;6.862;2023-11-19T03:37:09;11.60;99.90
52867;DHT22;38739;53.324;6.862;2023-11-19T03:39:35;11.60;99.90
52867;DHT22;38739;53.324;6.862;2023-11-19T03:42:01;11.50;99.90
52867;DHT22;38739;53.324;6.862;2023-11-19T03:44:27;11.50;99.90
52867;DHT22;38739;53.324;6.862;2023-11-19T03:46:53;11.50;99.90
52867;DHT22;38739;53.324;6.862;2023-11-19T03:49:18;11.50;99.90
52867;DHT22;38739;53.324;6.862;2023-11-19T03:51:44;11.50;99.90
52867;DHT22;38739;53.324;6.862;2023-11-19T03:54:09;11.50;99.90
52867;DHT22;38739;53.324;6.862;2023-11-19T03:56:37;11.50;99.90
52867;DHT22;38739;53.324;6.862;2023-11-19T03:59:03;11.60;99.90
52867;DHT22;38739;53.324;6.862;2023-11-19T04:01:28;11.50;99.90
52867;DHT22;38739;53.324;6.862;2023-11-19T04:03:54;11.50;99.90
52867;DHT22;38739;53.324;6.862;2023-11-19T04:06:21;11.50;99.90
52867;DHT22;38739;53.324;6.862;2023-11-19T04:08:47;11.50;99.90
52867;DHT22;38739;53.324;6.862;2023-11-19T04:11:12;11.50;99.90
52867;DHT22;38739;53.324;6.862;2023-11-19T04:13:38;11.60;99.90
52867;DHT22;38739;53.324;6.862;2023-11-19T04:16:04;11.60;99.90
52867;DHT22;38739;53.324;6.862;2023-11-19T04:18:30;11.50;99.90
52867;DHT22;38739;53.324;6.862;2023-11-19T04:20:57;11.60;99.90
52867;DHT22;38739;53.324;6.862;2023-11-19T04:23:24;11.60;99.90
52867;DHT22;38739;53.324;6.862;2023-11-19T04:25:50;11.50;99.90
52867;DHT22;38739;53.324;6.862;2023-11-19T04:28:16;11.60;99.90
52867;DHT22;38739;53.324;6.862;2023-11-19T04:30:41;11.60;99.90
52867;DHT22;38739;53.324;6.862;2023-11-19T04:33:07;11.60;99.90
52867;DHT22;38739;53.324;6.862;2023-11-19T04:35:33;11.60;99.90
52867;DHT22;38739;53.324;6.862;2023-11-19T04:37:58;11.60;99.90
52867;DHT22;38739;53.324;6.862;2023-11-19T04:40:24;11.60;99.90
52867;DHT22;38739;53.324;6.862;2023-11-19T04:42:50;11.60;99.90
52867;DHT22;38739;53.324;6.862;2023-11-19T04:45:16;11.50;99.90
52867;DHT22;38739;53.324;6.862;2023-11-19T04:47:42;11.60;99.90
52867;DHT22;38739;53.324;6.862;2023-11-19T04:50:08;11.60;99.90
52867;DHT22;38739;53.324;6.862;2023-11-19T04:52:38;11.60;99.90
52867;DHT22;38739;53.324;6.862;2023-11-19T04:55:07;11.60;99.90
52867;DHT22;38739;53.324;6.862;2023-11-19T04:57:37;11.60;99.90
52867;DHT22;38739;53.324;6.862;2023-11-19T05:00:03;11.60;99.90
52867;DHT22;38739;53.324;6.862;2023-11-19T05:02:31;11.60;99.90
52867;DHT22;38739;53.324;6.862;2023-11-19T05:04:57;11.60;99.90
52867;DHT22;38739;53.324;6.862;2023-11-19T05:07:22;11.60;99.90
52867;DHT22;38739;53.324;6.862;2023-11-19T05:09:48;11.60;99.90
52867;DHT22;38739;53.324;6.862;2023-11-19T05:12:14;11.60;99.90
52867;DHT22;38739;53.324;6.862;2023-11-19T05:14:39;11.60;99.90
52867;DHT22;38739;53.324;6.862;2023-11-19T05:17:05;11.60;99.90
52867;DHT22;38739;53.324;6.862;2023-11-19T05:19:31;11.60;99.90
52867;DHT22;38739;53.324;6.862;2023-11-19T05:21:56;11.60;99.90
52867;DHT22;38739;53.324;6.862;2023-11-19T05:24:22;11.50;99.90
52867;DHT22;38739;53.324;6.862;2023-11-19T05:26:48;11.50;99.90
52867;DHT22;38739;53.324;6.862;2023-11-19T05:29:16;11.50;99.90
52867;DHT22;38739;53.324;6.862;2023-11-19T05:31:42;11.50;99.90
52867;DHT22;38739;53.324;6.862;2023-11-19T05:34:08;11.50;99.90
52867;DHT22;38739;53.324;6.862;2023-11-19T05:36:33;11.50;99.90
52867;DHT22;38739;53.324;6.862;2023-11-19T05:38:59;11.50;99.90
52867;DHT22;38739;53.324;6.862;2023-11-19T05:41:25;11.50;99.90
52867;DHT22;38739;53.324;6.862;2023-11-19T05:43:50;11.50;99.90
52867;DHT22;38739;53.324;6.862;2023-11-19T05:46:17;11.50;99.90
52867;DHT22;38739;53.324;6.862;2023-11-19T05:48:42;11.50;99.90
52867;DHT22;38739;53.324;6.862;2023-11-19T05:51:08;11.40;99.90
52867;DHT22;38739;53.324;6.862;2023-11-19T05:53:34;11.40;99.90
52867;DHT22;38739;53.324;6.862;2023-11-19T05:55:59;11.40;99.90
52867;DHT22;38739;53.324;6.862;2023-11-19T05:58:29;11.40;99.90
52867;DHT22;38739;53.324;6.862;2023-11-19T06:00:56;11.40;99.90
52867;DHT22;38739;53.324;6.862;2023-11-19T06:03:22;11.40;99.90
52867;DHT22;38739;53.324;6.862;2023-11-19T06:05:49;11.40;99.90
52867;DHT22;38739;53.324;6.862;2023-11-19T06:08:14;11.40;99.90
52867;DHT22;38739;53.324;6.862;2023-11-19T06:10:41;11.40;99.90
52867;DHT22;38739;53.324;6.862;2023-11-19T06:13:07;11.40;99.90
52867;DHT22;38739;53.324;6.862;2023-11-19T06:15:35;11.40;99.90
52867;DHT22;38739;53.324;6.862;2023-11-19T06:18:02;11.40;99.90
52867;DHT22;38739;53.324;6.862;2023-11-19T06:20:34;11.40;99.90
52867;DHT22;38739;53.324;6.862;2023-11-19T06:23:00;11.40;99.90
52867;DHT22;38739;53.324;6.862;2023-11-19T06:25:26;11.40;99.90
52867;DHT22;38739;53.324;6.862;2023-11-19T06:27:52;11.40;99.90
52867;DHT22;38739;53.324;6.862;2023-11-19T06:30:18;11.30;99.90
52867;DHT22;38739;53.324;6.862;2023-11-19T06:32:45;11.40;99.90
52867;DHT22;38739;53.324;6.862;2023-11-19T06:35:10;11.30;99.90
52867;DHT22;38739;53.324;6.862;2023-11-19T06:37:38;11.30;99.90
52867;DHT22;38739;53.324;6.862;2023-11-19T06:40:05;11.30;99.90
52867;DHT22;38739;53.324;6.862;2023-11-19T06:42:31;11.30;99.90
52867;DHT22;38739;53.324;6.862;2023-11-19T06:44:59;11.20;99.90
52867;DHT22;38739;53.324;6.862;2023-11-19T06:47:28;11.30;99.90
52867;DHT22;38739;53.324;6.862;2023-11-19T06:49:54;11.20;99.90
52867;DHT22;38739;53.324;6.862;2023-11-19T06:52:20;11.20;99.90
52867;DHT22;38739;53.324;6.862;2023-11-19T06:54:46;11.10;99.90
52867;DHT22;38739;53.324;6.862;2023-11-19T06:57:12;11.10;99.90
52867;DHT22;38739;53.324;6.862;2023-11-19T06:59:38;11.10;99.90
52867;DHT22;38739;53.324;6.862;2023-11-19T07:02:06;11.10;99.90
52867;DHT22;38739;53.324;6.862;2023-11-19T07:04:32;11.10;99.90
52867;DHT22;38739;53.324;6.862;2023-11-19T07:06:59;11.00;99.90
52867;DHT22;38739;53.324;6.862;2023-11-19T07:09:27;11.00;99.90
52867;DHT22;38739;53.324;6.862;2023-11-19T07:11:53;11.00;99.90
52867;DHT22;38739;53.324;6.862;2023-11-19T07:14:19;11.00;99.90
52867;DHT22;38739;53.324;6.862;2023-11-19T07:16:47;11.00;99.90
52867;DHT22;38739;53.324;6.862;2023-11-19T07:19:13;11.00;99.90
52867;DHT22;38739;53.324;6.862;2023-11-19T07:21:43;11.00;99.90
52867;DHT22;38739;53.324;6.862;2023-11-19T07:24:10;11.00;99.90
52867;DHT22;38739;53.324;6.862;2023-11-19T07:26:45;10.90;99.90
52867;DHT22;38739;53.324;6.862;2023-11-19T07:29:10;10.90;99.90
52867;DHT22;38739;53.324;6.862;2023-11-19T07:31:36;10.90;99.90
52867;DHT22;38739;53.324;6.862;2023-11-19T07:34:05;10.90;99.90
52867;DHT22;38739;53.324;6.862;2023-11-19T07:36:32;10.90;99.90
52867;DHT22;38739;53.324;6.862;2023-11-19T07:38:58;10.90;99.90
52867;DHT22;38739;53.324;6.862;2023-11-19T07:41:24;10.90;99.90
52867;DHT22;38739;53.324;6.862;2023-11-19T07:43:51;10.90;99.90
52867;DHT22;38739;53.324;6.862;2023-11-19T07:46:17;10.90;99.90
52867;DHT22;38739;53.324;6.862;2023-11-19T07:48:45;10.90;99.90
52867;DHT22;38739;53.324;6.862;2023-11-19T07:51:12;11.00;99.90
52867;DHT22;38739;53.324;6.862;2023-11-19T07:53:39;10.90;99.90
52867;DHT22;38739;53.324;6.862;2023-11-19T07:56:09;11.00;99.90
52867;DHT22;38739;53.324;6.862;2023-11-19T07:58:35;10.90;99.90
52867;DHT22;38739;53.324;6.862;2023-11-19T08:01:02;11.00;99.90
52867;DHT22;38739;53.324;6.862;2023-11-19T08:03:28;10.90;99.90
52867;DHT22;38739;53.324;6.862;2023-11-19T08:05:58;11.00;99.90
52867;DHT22;38739;53.324;6.862;2023-11-19T08:08:23;11.00;99.90
52867;DHT22;38739;53.324;6.862;2023-11-19T08:10:49;11.00;99.90
52867;DHT22;38739;53.324;6.862;2023-11-19T08:13:19;11.10;99.90
52867;DHT22;38739;53.324;6.862;2023-11-19T08:15:45;11.10;99.90
52867;DHT22;38739;53.324;6.862;2023-11-19T08:18:12;11.10;99.90
52867;DHT22;38739;53.324;6.862;2023-11-19T08:20:38;11.10;99.90
52867;DHT22;38739;53.324;6.862;2023-11-19T08:23:04;11.10;99.90
52867;DHT22;38739;53.324;6.862;2023-11-19T08:25:30;11.10;99.90
52867;DHT22;38739;53.324;6.862;2023-11-19T08:27:56;11.10;99.90
52867;DHT22;38739;53.324;6.862;2023-11-19T08:30:22;11.20;99.90
52867;DHT22;38739;53.324;6.862;2023-11-19T08:32:48;11.20;99.90
52867;DHT22;38739;53.324;6.862;2023-11-19T08:35:13;11.20;99.90
52867;DHT22;38739;53.324;6.862;2023-11-19T08:37:39;11.30;99.90
52867;DHT22;38739;53.324;6.862;2023-11-19T08:40:05;11.20;99.90
52867;DHT22;38739;53.324;6.862;2023-11-19T08:42:32;11.30;99.90
52867;DHT22;38739;53.324;6.862;2023-11-19T08:44:58;11.30;99.90
52867;DHT22;38739;53.324;6.862;2023-11-19T08:47:24;11.30;99.90
52867;DHT22;38739;53.324;6.862;2023-11-19T08:49:52;11.30;99.90
52867;DHT22;38739;53.324;6.862;2023-11-19T08:52:19;11.30;99.90
52867;DHT22;38739;53.324;6.862;2023-11-19T08:54:44;11.30;99.90
52867;DHT22;38739;53.324;6.862;2023-11-19T08:57:10;11.30;99.90
52867;DHT22;38739;53.324;6.862;2023-11-19T08:59:36;11.30;99.90
52867;DHT22;38739;53.324;6.862;2023-11-19T09:02:05;11.30;99.90
52867;DHT22;38739;53.324;6.862;2023-11-19T09:04:30;11.40;99.90
52867;DHT22;38739;53.324;6.862;2023-11-19T09:06:58;11.40;99.90
52867;DHT22;38739;53.324;6.862;2023-11-19T09:09:23;11.40;99.90
52867;DHT22;38739;53.324;6.862;2023-11-19T09:11:49;11.40;99.90
52867;DHT22;38739;53.324;6.862;2023-11-19T09:14:15;11.40;99.90
52867;DHT22;38739;53.324;6.862;2023-11-19T09:16:41;11.40;99.90
52867;DHT22;38739;53.324;6.862;2023-11-19T09:19:06;11.40;99.90
52867;DHT22;38739;53.324;6.862;2023-11-19T09:21:32;11.40;99.90
52867;DHT22;38739;53.324;6.862;2023-11-19T09:24:00;11.50;99.90
52867;DHT22;38739;53.324;6.862;2023-11-19T09:26:25;11.50;99.90
52867;DHT22;38739;53.324;6.862;2023-11-19T09:28:51;11.60;99.90
52867;DHT22;38739;53.324;6.862;2023-11-19T09:31:17;11.70;99.90
52867;DHT22;38739;53.324;6.862;2023-11-19T09:33:44;11.80;99.90
52867;DHT22;38739;53.324;6.862;2023-11-19T09:36:12;11.80;99.90
52867;DHT22;38739;53.324;6.862;2023-11-19T09:38:39;11.80;99.90
52867;DHT22;38739;53.324;6.862;2023-11-19T09:41:06;11.80;99.90
52867;DHT22;38739;53.324;6.862;2023-11-19T09:43:35;11.80;99.90
52867;DHT22;38739;53.324;6.862;2023-11-19T09:46:06;11.80;99.90
52867;DHT22;38739;53.324;6.862;2023-11-19T09:48:37;11.80;99.90
52867;DHT22;38739;53.324;6.862;2023-11-19T09:51:04;11.90;99.90
52867;DHT22;38739;53.324;6.862;2023-11-19T09:53:31;11.90;99.90
52867;DHT22;38739;53.324;6.862;2023-11-19T09:56:03;12.00;99.90
52867;DHT22;38739;53.324;6.862;2023-11-19T09:58:30;12.10;99.90
52867;DHT22;38739;53.324;6.862;2023-11-19T10:00:57;12.20;99.90
52867;DHT22;38739;53.324;6.862;2023-11-19T10:03:26;12.20;99.90
52867;DHT22;38739;53.324;6.862;2023-11-19T10:05:56;12.30;99.90
52867;DHT22;38739;53.324;6.862;2023-11-19T10:08:22;12.40;99.90
52867;DHT22;38739;53.324;6.862;2023-11-19T10:10:48;12.40;99.90
52867;DHT22;38739;53.324;6.862;2023-11-19T10:13:14;12.40;99.90
52867;DHT22;38739;53.324;6.862;2023-11-19T10:15:40;12.40;99.90
52867;DHT22;38739;53.324;6.862;2023-11-19T10:18:06;12.40;99.90
52867;DHT22;38739;53.324;6.862;2023-11-19T10:20:40;12.40;99.90
52867;DHT22;38739;53.324;6.862;2023-11-19T10:23:06;12.40;99.90
52867;DHT22;38739;53.324;6.862;2023-11-19T10:25:33;12.50;99.90
52867;DHT22;38739;53.324;6.862;2023-11-19T10:27:59;12.40;99.90
52867;DHT22;38739;53.324;6.862;2023-11-19T10:30:30;12.40;99.90
52867;DHT22;38739;53.324;6.862;2023-11-19T10:35:34;12.40;99.90
52867;DHT22;38739;53.324;6.862;2023-11-19T10:38:16;12.40;99.90
52867;DHT22;38739;53.324;6.862;2023-11-19T10:40:42;12.40;99.90
52867;DHT22;38739;53.324;6.862;2023-11-19T10:43:08;12.40;99.90
52867;DHT22;38739;53.324;6.862;2023-11-19T10:45:35;12.50;99.90
52867;DHT22;38739;53.324;6.862;2023-11-19T10:48:05;12.50;99.90
52867;DHT22;38739;53.324;6.862;2023-11-19T10:50:34;12.50;99.90
52867;DHT22;38739;53.324;6.862;2023-11-19T10:53:02;12.40;99.90
52867;DHT22;38739;53.324;6.862;2023-11-19T10:55:34;12.40;99.90
52867;DHT22;38739;53.324;6.862;2023-11-19T10:58:05;12.40;99.90
52867;DHT22;38739;53.324;6.862;2023-11-19T11:03:39;12.20;99.90
52867;DHT22;38739;53.324;6.862;2023-11-19T11:06:06;12.10;99.90
52867;DHT22;38739;53.324;6.862;2023-11-19T11:08:32;12.10;99.90
52867;DHT22;38739;53.324;6.862;2023-11-19T11:11:00;12.00;99.90
52867;DHT22;38739;53.324;6.862;2023-11-19T11:13:27;12.00;99.90
52867;DHT22;38739;53.324;6.862;2023-11-19T11:15:55;12.10;99.90
52867;DHT22;38739;53.324;6.862;2023-11-19T11:18:24;12.20;99.90
52867;DHT22;38739;53.324;6.862;2023-11-19T11:20:55;12.20;99.90
52867;DHT22;38739;53.324;6.862;2023-11-19T11:29:41;12.80;99.90
52867;DHT22;38739;53.324;6.862;2023-11-19T11:32:25;12.90;99.90
52867;DHT22;38739;53.324;6.862;2023-11-19T11:35:24;13.00;99.90
52867;DHT22;38739;53.324;6.862;2023-11-19T11:38:00;12.90;99.90
52867;DHT22;38739;53.324;6.862;2023-11-19T11:40:27;12.80;99.90
52867;DHT22;38739;53.324;6.862;2023-11-19T11:42:52;12.70;99.90
52867;DHT22;38739;53.324;6.862;2023-11-19T11:45:19;12.60;99.90
52867;DHT22;38739;53.324;6.862;2023-11-19T11:50:20;12.60;99.90
52867;DHT22;38739;53.324;6.862;2023-11-19T11:55:36;12.60;99.90
52867;DHT22;38739;53.324;6.862;2023-11-19T11:58:05;12.60;99.90
52867;DHT22;38739;53.324;6.862;2023-11-19T12:00:32;12.60;99.90
52867;DHT22;38739;53.324;6.862;2023-11-19T12:03:02;12.50;99.90
52867;DHT22;38739;53.324;6.862;2023-11-19T12:05:30;12.40;99.90
52867;DHT22;38739;53.324;6.862;2023-11-19T12:07:57;12.30;99.90
52867;DHT22;38739;53.324;6.862;2023-11-19T12:10:24;12.30;99.90
52867;DHT22;38739;53.324;6.862;2023-11-19T12:12:53;12.20;99.90
52867;DHT22;38739;53.324;6.862;2023-11-19T12:15:18;12.10;99.90
52867;DHT22;38739;53.324;6.862;2023-11-19T12:17:49;12.20;99.90
52867;DHT22;38739;53.324;6.862;2023-11-19T12:20:16;12.20;99.90
52867;DHT22;38739;53.324;6.862;2023-11-19T12:22:43;12.10;99.90
52867;DHT22;38739;53.324;6.862;2023-11-19T12:25:11;12.10;99.90
52867;DHT22;38739;53.324;6.862;2023-11-19T12:27:41;12.00;99.90
52867;DHT22;38739;53.324;6.862;2023-11-19T12:30:07;12.00;99.90
52867;DHT22;38739;53.324;6.862;2023-11-19T12:32:45;12.00;99.90
52867;DHT22;38739;53.324;6.862;2023-11-19T12:35:12;12.10;99.90
52867;DHT22;38739;53.324;6.862;2023-11-19T12:37:45;12.10;99.90
52867;DHT22;38739;53.324;6.862;2023-11-19T12:40:15;12.10;99.90
52867;DHT22;38739;53.324;6.862;2023-11-19T12:42:48;12.00;99.90
52867;DHT22;38739;53.324;6.862;2023-11-19T12:45:14;12.00;99.90
52867;DHT22;38739;53.324;6.862;2023-11-19T12:47:42;12.00;99.90
52867;DHT22;38739;53.324;6.862;2023-11-19T12:50:09;11.90;99.90
52867;DHT22;38739;53.324;6.862;2023-11-19T12:52:38;11.90;99.90
52867;DHT22;38739;53.324;6.862;2023-11-19T12:55:26;11.90;99.90
52867;DHT22;38739;53.324;6.862;2023-11-19T12:57:53;11.90;99.90
52867;DHT22;38739;53.324;6.862;2023-11-19T13:00:24;12.00;99.90
52867;DHT22;38739;53.324;6.862;2023-11-19T13:02:56;12.10;99.90
52867;DHT22;38739;53.324;6.862;2023-11-19T13:05:30;12.10;99.90
52867;DHT22;38739;53.324;6.862;2023-11-19T13:08:02;12.20;99.90
52867;DHT22;38739;53.324;6.862;2023-11-19T13:10:29;12.30;99.90
52867;DHT22;38739;53.324;6.862;2023-11-19T13:13:07;12.30;99.90
52867;DHT22;38739;53.324;6.862;2023-11-19T13:15:36;12.30;99.90
52867;DHT22;38739;53.324;6.862;2023-11-19T13:18:02;12.40;99.90
52867;DHT22;38739;53.324;6.862;2023-11-19T13:20:28;12.30;99.90
52867;DHT22;38739;53.324;6.862;2023-11-19T13:23:03;12.30;99.90
52867;DHT22;38739;53.324;6.862;2023-11-19T13:25:30;12.20;99.90
52867;DHT22;38739;53.324;6.862;2023-11-19T13:27:56;12.20;99.90
52867;DHT22;38739;53.324;6.862;2023-11-19T13:30:23;12.20;99.90
52867;DHT22;38739;53.324;6.862;2023-11-19T13:32:50;12.20;99.90
52867;DHT22;38739;53.324;6.862;2023-11-19T13:35:16;12.10;99.90
52867;DHT22;38739;53.324;6.862;2023-11-19T13:37:43;12.10;99.90
52867;DHT22;38739;53.324;6.862;2023-11-19T13:40:09;12.10;99.90
52867;DHT22;38739;53.324;6.862;2023-11-19T13:42:38;12.10;99.90
52867;DHT22;38739;53.324;6.862;2023-11-19T13:45:13;12.10;99.90
52867;DHT22;38739;53.324;6.862;2023-11-19T13:47:41;12.10;99.90
52867;DHT22;38739;53.324;6.862;2023-11-19T13:50:14;12.10;99.90
52867;DHT22;38739;53.324;6.862;2023-11-19T13:52:41;12.10;99.90
52867;DHT22;38739;53.324;6.862;2023-11-19T13:55:08;12.00;99.90
52867;DHT22;38739;53.324;6.862;2023-11-19T13:57:38;12.00;99.90
52867;DHT22;38739;53.324;6.862;2023-11-19T14:00:05;12.00;99.90
52867;DHT22;38739;53.324;6.862;2023-11-19T14:02:33;12.00;99.90
52867;DHT22;38739;53.324;6.862;2023-11-19T14:04:58;11.90;99.90
52867;DHT22;38739;53.324;6.862;2023-11-19T14:07:24;11.90;99.90
52867;DHT22;38739;53.324;6.862;2023-11-19T14:09:50;11.90;99.90
52867;DHT22;38739;53.324;6.862;2023-11-19T14:12:16;11.90;99.90
52867;DHT22;38739;53.324;6.862;2023-11-19T14:14:41;11.80;99.90
52867;DHT22;38739;53.324;6.862;2023-11-19T14:17:07;11.80;99.90
52867;DHT22;38739;53.324;6.862;2023-11-19T14:19:33;11.80;99.90
52867;DHT22;38739;53.324;6.862;2023-11-19T14:21:59;11.80;99.90
52867;DHT22;38739;53.324;6.862;2023-11-19T14:24:26;11.80;99.90
52867;DHT22;38739;53.324;6.862;2023-11-19T14:26:51;11.70;99.90
52867;DHT22;38739;53.324;6.862;2023-11-19T14:29:17;11.70;99.90
52867;DHT22;38739;53.324;6.862;2023-11-19T14:31:43;11.70;99.90
52867;DHT22;38739;53.324;6.862;2023-11-19T14:34:08;11.70;99.90
52867;DHT22;38739;53.324;6.862;2023-11-19T14:36:34;11.60;99.90
52867;DHT22;38739;53.324;6.862;2023-11-19T14:39:00;11.60;99.90
52867;DHT22;38739;53.324;6.862;2023-11-19T14:41:26;11.50;99.90
52867;DHT22;38739;53.324;6.862;2023-11-19T14:43:52;11.50;99.90
52867;DHT22;38739;53.324;6.862;2023-11-19T14:46:18;11.40;99.90
52867;DHT22;38739;53.324;6.862;2023-11-19T14:48:43;11.40;99.90
52867;DHT22;38739;53.324;6.862;2023-11-19T14:51:09;11.30;99.90
52867;DHT22;38739;53.324;6.862;2023-11-19T14:53:35;11.30;99.90
52867;DHT22;38739;53.324;6.862;2023-11-19T14:56:01;11.30;99.90
52867;DHT22;38739;53.324;6.862;2023-11-19T14:58:26;11.30;99.90
52867;DHT22;38739;53.324;6.862;2023-11-19T15:00:52;11.20;99.90
52867;DHT22;38739;53.324;6.862;2023-11-19T15:03:18;11.20;99.90
52867;DHT22;38739;53.324;6.862;2023-11-19T15:05:48;11.20;99.90
52867;DHT22;38739;53.324;6.862;2023-11-19T15:08:13;11.20;99.90
52867;DHT22;38739;53.324;6.862;2023-11-19T15:10:44;11.20;99.90
52867;DHT22;38739;53.324;6.862;2023-11-19T15:13:12;11.20;99.90
52867;DHT22;38739;53.324;6.862;2023-11-19T15:15:38;11.20;99.90
52867;DHT22;38739;53.324;6.862;2023-11-19T15:18:04;11.20;99.90
52867;DHT22;38739;53.324;6.862;2023-11-19T15:20:30;11.20;99.90
52867;DHT22;38739;53.324;6.862;2023-11-19T15:22:57;11.20;99.90
52867;DHT22;38739;53.324;6.862;2023-11-19T15:25:23;11.20;99.90
52867;DHT22;38739;53.324;6.862;2023-11-19T15:27:49;11.10;99.90
52867;DHT22;38739;53.324;6.862;2023-11-19T15:30:15;11.10;99.90
52867;DHT22;38739;53.324;6.862;2023-11-19T15:32:41;11.10;99.90
52867;DHT22;38739;53.324;6.862;2023-11-19T15:35:09;11.10;99.90
52867;DHT22;38739;53.324;6.862;2023-11-19T15:37:36;11.20;99.90
52867;DHT22;38739;53.324;6.862;2023-11-19T15:40:03;11.10;99.90
52867;DHT22;38739;53.324;6.862;2023-11-19T15:42:36;11.10;99.90
52867;DHT22;38739;53.324;6.862;2023-11-19T15:45:02;11.10;99.90
52867;DHT22;38739;53.324;6.862;2023-11-19T15:47:30;11.10;99.90